Time;durP1;ratioP1;P1;durP2;ratioP2;P2;SDS_P1;SDS_P2;PMS_P1;PMS_P2;Temp;Humidity;BMP_temperature;BMP_pressure;BME280_temperature;BME280_humidity;BME280_pressure;Samples;Min_cycle;Max_cycle;Signal;HPM_P1;HPM_P2
2023/10/04 00:01:40;;;;;;;5.13;0.85;;;;;;;12.46;91.37;102195.28;7390684;19;19919;-68
2023/10/04 00:04:10;;;;;;;6.25;1.38;;;;;;;12.41;90.81;102186.81;7394260;19;20280;-68
2023/10/04 00:06:39;;;;;;;7.00;1.63;;;;;;;12.37;90.78;102195.38;7393037;19;19930;-68
2023/10/04 00:09:09;;;;;;;6.22;1.42;;;;;;;12.33;90.88;102196.69;7396340;19;20345;-69
2023/10/04 00:11:41;;;;;;;5.93;1.30;;;;;;;12.31;90.96;102202.25;7396597;19;19938;-69
2023/10/04 00:14:10;;;;;;;9.13;1.20;;;;;;;12.27;90.70;102190.91;7396265;19;23049;-68
2023/10/04 00:16:38;;;;;;;7.82;1.20;;;;;;;12.26;90.95;102196.44;7395177;19;19935;-69
2023/10/04 00:19:09;;;;;;;4.20;1.10;;;;;;;12.23;90.82;102197.63;7393906;19;19922;-68
2023/10/04 00:21:38;;;;;;;9.63;1.08;;;;;;;12.21;90.94;102206.88;7393497;19;19923;-69
2023/10/04 00:24:09;;;;;;;6.03;1.45;;;;;;;12.19;91.16;102217.00;7393394;19;19951;-69
2023/10/04 00:26:41;;;;;;;7.18;2.10;;;;;;;12.15;91.11;102216.47;7392538;19;19918;-68
2023/10/04 00:29:10;;;;;;;5.20;0.90;;;;;;;12.12;90.84;102229.44;7393305;19;19922;-68
2023/10/04 00:31:39;;;;;;;5.35;1.10;;;;;;;12.09;90.92;102224.31;7392909;19;19933;-68
2023/10/04 00:34:09;;;;;;;5.75;1.38;;;;;;;12.08;91.38;102228.06;7391501;19;19926;-68
2023/10/04 00:36:37;;;;;;;4.68;1.17;;;;;;;12.08;91.48;102239.66;7393534;19;19934;-68
2023/10/04 00:39:06;;;;;;;10.20;1.85;;;;;;;12.06;91.34;102236.28;7395387;19;19968;-68
2023/10/04 00:41:35;;;;;;;7.22;1.40;;;;;;;12.06;91.22;102235.44;7390654;19;20297;-68
2023/10/04 00:44:07;;;;;;;4.03;1.63;;;;;;;12.06;91.43;102247.09;7398225;19;19915;-68
2023/10/04 00:46:41;;;;;;;7.10;1.60;;;;;;;12.05;91.28;102245.41;7392942;19;19923;-68
2023/10/04 00:49:11;;;;;;;6.05;1.52;;;;;;;12.05;91.57;102245.41;7395507;19;19943;-68
2023/10/04 00:51:41;;;;;;;5.40;0.98;;;;;;;12.05;91.44;102233.72;7392417;19;19926;-68
2023/10/04 00:54:10;;;;;;;5.97;1.27;;;;;;;12.03;91.45;102249.25;7392969;19;19990;-68
2023/10/04 00:56:41;;;;;;;7.40;1.63;;;;;;;12.02;91.25;102240.31;7389950;19;20005;-68
2023/10/04 00:59:12;;;;;;;4.30;1.13;;;;;;;12.01;91.57;102248.56;7391374;19;20417;-68
2023/10/04 01:01:41;;;;;;;6.70;1.25;;;;;;;12.00;91.27;102245.00;7392634;19;19926;-68
2023/10/04 01:04:10;;;;;;;3.45;1.40;;;;;;;11.99;91.32;102253.28;7389544;19;19926;-69
2023/10/04 01:06:40;;;;;;;4.15;1.10;;;;;;;11.97;91.78;102261.50;7393787;19;19926;-69
2023/10/04 01:09:08;;;;;;;8.48;1.65;;;;;;;11.98;91.47;102249.72;7398954;19;19926;-68
2023/10/04 01:11:38;;;;;;;6.72;1.25;;;;;;;11.99;91.80;102247.88;7397304;19;19943;-68
2023/10/04 01:14:18;;;;;;;2.90;1.17;;;;;;;12.01;91.48;102245.84;7398288;19;19930;-68
2023/10/04 01:16:50;;;;;;;6.53;1.55;;;;;;;12.02;91.76;102255.66;7398051;19;19927;-68
2023/10/04 01:19:20;;;;;;;5.72;1.50;;;;;;;12.03;91.76;102246.56;7396956;19;19919;-68
2023/10/04 01:21:49;;;;;;;5.53;1.30;;;;;;;12.05;91.40;102250.78;7400630;19;19923;-68
2023/10/04 01:24:21;;;;;;;5.85;1.95;;;;;;;12.07;91.61;102254.22;7397688;19;19939;-68
2023/10/04 01:26:50;;;;;;;7.40;1.50;;;;;;;12.10;91.60;102255.75;7398533;19;19923;-68
2023/10/04 01:29:19;;;;;;;5.22;1.25;;;;;;;12.11;91.71;102257.44;7402250;19;19939;-69
2023/10/04 01:31:47;;;;;;;6.40;1.30;;;;;;;12.10;91.61;102253.88;7399378;19;19954;-69
2023/10/04 01:34:16;;;;;;;4.07;1.00;;;;;;;12.10;91.72;102244.94;7393958;19;20293;-68
2023/10/04 01:36:44;;;;;;;6.90;1.48;;;;;;;12.10;91.71;102253.88;7399744;19;19934;-68
2023/10/04 01:39:19;;;;;;;9.00;1.10;;;;;;;12.10;91.67;102250.34;7400527;19;19926;-68
2023/10/04 01:41:51;;;;;;;6.20;1.95;;;;;;;12.10;92.08;102253.03;7398241;19;20363;-69
2023/10/04 01:44:20;;;;;;;7.35;1.40;;;;;;;12.10;92.08;102258.44;7397634;19;19939;-68
2023/10/04 01:46:48;;;;;;;7.00;1.33;;;;;;;12.11;91.98;102261.00;7394228;19;19933;-68
2023/10/04 01:49:17;;;;;;;7.60;1.10;;;;;;;12.11;91.84;102254.75;7398808;19;20257;-68
2023/10/04 01:51:46;;;;;;;9.75;1.35;;;;;;;12.13;91.96;102261.69;7396319;19;20187;-68
2023/10/04 01:54:15;;;;;;;6.97;1.30;;;;;;;12.13;92.33;102261.69;7398996;19;19922;-68
2023/10/04 01:56:44;;;;;;;8.10;1.33;;;;;;;12.14;92.42;102259.84;7400074;19;19922;-68
2023/10/04 01:59:17;;;;;;;3.53;0.88;;;;;;;12.15;91.82;102258.84;7396939;19;20029;-68
2023/10/04 02:01:46;;;;;;;3.28;1.35;;;;;;;12.14;91.91;102255.28;7400552;19;19967;-69
2023/10/04 02:04:15;;;;;;;5.80;1.40;;;;;;;12.17;91.92;102249.56;7395954;19;19919;-68
2023/10/04 02:06:41;;;;;;;7.15;1.35;;;;;;;12.19;91.76;102261.06;7397267;19;19950;-68
2023/10/04 02:09:11;;;;;;;9.45;2.05;;;;;;;12.18;91.82;102262.06;7399217;19;19945;-68
2023/10/04 02:11:41;;;;;;;6.35;1.30;;;;;;;12.18;92.00;102262.06;7396932;19;20291;-68
2023/10/04 02:14:10;;;;;;;5.18;1.02;;;;;;;12.17;92.17;102257.66;7400119;19;19939;-68
2023/10/04 02:16:41;;;;;;;6.18;1.17;;;;;;;12.15;91.96;102262.38;7397845;19;20408;-68
2023/10/04 02:19:11;;;;;;;5.93;0.98;;;;;;;12.16;92.00;102268.66;7397115;19;20249;-68
2023/10/04 02:21:40;;;;;;;6.85;1.00;;;;;;;12.17;91.77;102263.06;7400394;19;19950;-68
2023/10/04 02:24:11;;;;;;;4.22;1.17;;;;;;;12.18;91.81;102256.66;7402167;19;19926;-68
2023/10/04 02:26:39;;;;;;;3.80;0.75;;;;;;;12.20;91.56;102254.69;7398450;19;19983;-68
2023/10/04 02:29:09;;;;;;;6.43;1.23;;;;;;;12.19;91.63;102263.78;7401297;19;19950;-68
2023/10/04 02:31:41;;;;;;;5.20;1.38;;;;;;;12.21;91.53;102258.19;7399662;19;20345;-68
2023/10/04 02:34:11;;;;;;;8.52;1.63;;;;;;;12.20;91.15;102262.78;7391655;19;20276;-68
2023/10/04 02:36:43;;;;;;;7.95;1.30;;;;;;;12.20;91.50;102264.63;7399612;19;19915;-68
2023/10/04 02:39:12;;;;;;;5.22;1.10;;;;;;;12.20;91.45;102259.22;7398987;19;19926;-68
2023/10/04 02:41:41;;;;;;;5.35;1.30;;;;;;;12.19;91.28;102262.94;7397157;19;19935;-68
2023/10/04 02:44:10;;;;;;;10.68;1.55;;;;;;;12.18;91.59;102261.22;7398057;19;19922;-68
2023/10/04 02:46:45;;;;;;;3.55;1.13;;;;;;;12.16;91.45;102268.66;7397703;19;19933;-68
2023/10/04 02:49:13;;;;;;;9.10;1.40;;;;;;;12.15;91.76;102277.75;7398005;19;19967;-69
2023/10/04 02:51:44;;;;;;;7.47;1.55;;;;;;;12.14;91.91;102267.94;7393549;19;19922;-69
2023/10/04 02:54:16;;;;;;;6.45;1.00;;;;;;;12.14;91.78;102257.97;7397882;19;19922;-68
2023/10/04 02:56:46;;;;;;;9.38;1.27;;;;;;;12.14;91.76;102271.50;7397312;19;19984;-68
2023/10/04 02:59:16;;;;;;;9.40;1.20;;;;;;;12.14;91.96;102273.34;7394135;19;20356;-69
2023/10/04 03:01:47;;;;;;;5.85;1.27;;;;;;;12.17;91.87;102276.56;7395697;19;19922;-68
2023/10/04 03:04:16;;;;;;;4.38;0.98;;;;;;;12.19;91.57;102289.94;7395056;19;20368;-68
2023/10/04 03:06:45;;;;;;;6.88;1.20;;;;;;;12.20;91.43;102297.06;7394255;19;19931;-68
2023/10/04 03:09:15;;;;;;;3.90;1.00;;;;;;;12.19;91.60;102290.81;7394924;19;19951;-69
2023/10/04 03:11:44;;;;;;;13.98;1.73;;;;;;;12.19;91.89;102289.94;7397853;19;20036;-68
2023/10/04 03:14:15;;;;;;;6.68;1.02;;;;;;;12.18;91.73;102289.09;7398435;19;19967;-68
2023/10/04 03:16:44;;;;;;;7.35;0.95;;;;;;;12.18;92.11;102293.63;7397106;19;19918;-68
2023/10/04 03:19:16;;;;;;;7.03;1.38;;;;;;;12.15;91.85;102291.25;7395769;19;20389;-68
2023/10/04 03:21:47;;;;;;;6.40;1.70;;;;;;;12.16;92.07;102290.25;7393894;19;19922;-68
2023/10/04 03:24:18;;;;;;;7.63;1.25;;;;;;;12.15;92.18;102296.66;7396487;19;19963;-68
2023/10/04 03:26:47;;;;;;;7.45;1.75;;;;;;;12.18;92.12;102301.75;7396792;19;20437;-68
2023/10/04 03:29:16;;;;;;;4.25;1.27;;;;;;;12.20;91.92;102294.34;7398934;19;20369;-68
2023/10/04 03:31:48;;;;;;;9.40;1.48;;;;;;;12.21;92.26;102287.91;7397315;19;19921;-68
2023/10/04 03:34:22;;;;;;;6.45;1.42;;;;;;;12.23;92.06;102294.88;7394501;19;19922;-68
2023/10/04 03:36:51;;;;;;;7.75;1.33;;;;;;;12.27;91.87;102298.13;7394895;19;19935;-69
2023/10/04 03:39:22;;;;;;;8.13;1.45;;;;;;;12.29;91.94;102290.72;7397399;19;19930;-69
2023/10/04 03:41:51;;;;;;;6.50;1.40;;;;;;;12.28;91.97;102289.88;7394952;19;19922;-68
2023/10/04 03:44:20;;;;;;;8.02;1.30;;;;;;;12.30;92.21;102288.88;7397259;19;19933;-68
2023/10/04 03:46:48;;;;;;;9.82;1.40;;;;;;;12.29;92.15;102290.72;7395756;19;19955;-68
2023/10/04 03:49:21;;;;;;;14.98;1.90;;;;;;;12.30;92.48;102291.59;7397649;19;19950;-68
2023/10/04 03:51:53;;;;;;;8.68;1.70;;;;;;;12.28;92.10;102305.25;7397327;19;19923;-69
2023/10/04 03:54:21;;;;;;;7.68;1.40;;;;;;;12.28;92.31;102302.53;7394554;19;20286;-68
2023/10/04 03:56:50;;;;;;;8.60;1.90;;;;;;;12.27;92.05;102301.69;7394595;19;19951;-68
2023/10/04 03:59:19;;;;;;;13.35;1.42;;;;;;;12.28;92.04;102316.06;7394198;19;19924;-68
2023/10/04 04:01:47;;;;;;;4.70;1.27;;;;;;;12.30;92.09;102316.72;7398179;19;19963;-68
2023/10/04 04:04:19;;;;;;;5.20;1.40;;;;;;;12.32;91.99;102322.00;7393804;19;20321;-69
2023/10/04 04:06:49;;;;;;;7.95;1.30;;;;;;;12.33;91.62;102311.03;7393532;19;19926;-68
2023/10/04 04:09:18;;;;;;;5.65;1.02;;;;;;;12.35;91.63;102305.47;7394465;19;19933;-68
2023/10/04 04:11:47;;;;;;;9.93;1.30;;;;;;;12.36;91.63;102328.78;7397085;19;19930;-68
2023/10/04 04:14:18;;;;;;;9.43;1.33;;;;;;;12.37;91.46;102314.28;7397189;19;19974;-68
2023/10/04 04:16:47;;;;;;;8.98;1.30;;;;;;;12.38;91.48;102313.28;7393254;19;19922;-68
2023/10/04 04:19:19;;;;;;;11.55;1.85;;;;;;;12.36;91.41;102307.16;7396313;19;20002;-68
2023/10/04 04:21:51;;;;;;;6.13;1.40;;;;;;;12.35;91.49;102303.63;7396790;19;19960;-68
2023/10/04 04:24:23;;;;;;;8.05;1.20;;;;;;;12.33;91.35;102308.34;7392561;19;19923;-68
2023/10/04 04:26:55;;;;;;;7.18;1.35;;;;;;;12.32;91.66;102322.00;7393942;19;19915;-68
2023/10/04 04:29:24;;;;;;;8.85;1.50;;;;;;;12.31;91.69;102310.34;7398618;19;19930;-68
2023/10/04 04:31:53;;;;;;;7.70;1.55;;;;;;;12.30;91.88;102319.44;7394655;19;19926;-68
2023/10/04 04:34:25;;;;;;;6.68;1.65;;;;;;;12.30;91.76;102316.72;7394499;19;19943;-69
2023/10/04 04:36:57;;;;;;;6.57;1.30;;;;;;;12.29;91.73;102312.34;7393331;19;20582;-69
2023/10/04 04:39:28;;;;;;;6.25;1.30;;;;;;;12.30;91.82;102319.44;7393105;19;19926;-68
2023/10/04 04:41:57;;;;;;;6.40;1.83;;;;;;;12.30;91.70;102329.41;7393638;19;19930;-68
2023/10/04 04:44:38;;;;;;;5.80;1.40;;;;;;;12.29;91.74;102317.75;7393875;19;19922;-68
2023/10/04 04:47:07;;;;;;;11.07;1.27;;;;;;;12.28;91.61;102325.00;7393682;19;19926;-68
2023/10/04 04:49:35;;;;;;;9.43;1.60;;;;;;;12.28;92.00;102322.31;7395318;19;19926;-69
2023/10/04 04:52:09;;;;;;;4.53;1.45;;;;;;;12.27;91.72;102319.75;7392377;19;19926;-68
2023/10/04 04:54:38;;;;;;;3.65;1.42;;;;;;;12.25;91.88;102319.88;7394855;19;19941;-68
2023/10/04 04:57:07;;;;;;;7.50;1.50;;;;;;;12.26;91.82;102315.34;7391322;19;19927;-68
2023/10/04 04:59:37;;;;;;;6.68;1.23;;;;;;;12.25;91.94;102316.38;7391136;19;20356;-68
2023/10/04 05:02:06;;;;;;;5.53;1.33;;;;;;;12.24;91.67;102320.91;7390224;19;20813;-68
2023/10/04 05:04:36;;;;;;;5.35;1.40;;;;;;;12.22;91.96;102320.22;7389044;19;19923;-69
2023/10/04 05:07:09;;;;;;;9.20;2.55;;;;;;;12.22;92.29;102316.66;7391501;19;19926;-68
2023/10/04 05:09:38;;;;;;;7.00;1.38;;;;;;;12.19;92.26;102325.06;7392825;19;20405;-69
2023/10/04 05:12:07;;;;;;;6.15;1.40;;;;;;;12.18;92.35;102326.91;7394351;19;19926;-69
2023/10/04 05:14:37;;;;;;;7.20;1.33;;;;;;;12.14;92.20;102324.66;7390292;19;19941;-68
2023/10/04 05:17:05;;;;;;;8.13;1.52;;;;;;;12.13;92.40;102328.38;7390492;19;19922;-68
2023/10/04 05:19:34;;;;;;;9.20;1.58;;;;;;;12.11;92.65;102330.38;7385409;19;19915;-68
2023/10/04 05:22:03;;;;;;;7.32;1.90;;;;;;;12.11;92.51;102333.09;7390889;19;19926;-68
2023/10/04 05:24:34;;;;;;;11.95;3.17;;;;;;;12.09;92.73;102335.94;7394684;19;19922;-68
2023/10/04 05:27:04;;;;;;;5.75;1.45;;;;;;;12.09;92.86;102335.06;7394655;19;19962;-69
2023/10/04 05:29:33;;;;;;;7.25;1.80;;;;;;;12.08;93.19;102344.19;7392706;19;19915;-68
2023/10/04 05:32:01;;;;;;;6.88;1.77;;;;;;;12.07;93.01;102353.31;7392843;19;19926;-68
2023/10/04 05:34:30;;;;;;;7.70;2.15;;;;;;;12.04;93.11;102359.84;7390608;19;19922;-68
2023/10/04 05:36:58;;;;;;;8.25;1.55;;;;;;;12.02;93.56;102363.69;7394158;19;19962;-70
2023/10/04 05:39:27;;;;;;;7.97;1.45;;;;;;;12.01;93.36;102367.41;7393498;19;19922;-68
2023/10/04 05:41:59;;;;;;;9.80;1.60;;;;;;;11.98;93.54;102363.16;7392659;19;19915;-68
2023/10/04 05:44:28;;;;;;;6.35;1.63;;;;;;;11.97;93.79;102371.41;7394635;19;19926;-68
2023/10/04 05:46:57;;;;;;;6.18;1.27;;;;;;;11.95;94.01;102373.41;7394417;19;19927;-68
2023/10/04 05:49:26;;;;;;;8.13;1.75;;;;;;;11.94;94.50;102374.41;7394754;19;19926;-68
2023/10/04 05:51:54;;;;;;;7.00;1.83;;;;;;;11.93;94.30;102383.50;7394483;19;19919;-69
2023/10/04 05:54:24;;;;;;;4.05;1.02;;;;;;;11.91;94.58;102380.94;7394959;19;20304;-69
2023/10/04 05:56:52;;;;;;;8.43;1.20;;;;;;;11.91;94.13;102393.63;7395964;19;19937;-69
2023/10/04 05:59:23;;;;;;;8.50;1.55;;;;;;;11.91;94.54;102388.22;7398215;19;19933;-69
2023/10/04 06:01:52;;;;;;;4.50;1.42;;;;;;;11.91;94.63;102393.63;7399257;19;20315;-69
2023/10/04 06:04:21;;;;;;;8.65;1.70;;;;;;;11.91;94.48;102402.53;7397197;19;19932;-69
2023/10/04 06:06:50;;;;;;;6.32;1.10;;;;;;;11.89;94.68;102404.56;7399793;19;19934;-69
2023/10/04 06:09:28;;;;;;;5.40;1.30;;;;;;;11.90;94.96;102394.59;7396029;19;19930;-69
2023/10/04 06:11:56;;;;;;;8.07;2.38;;;;;;;11.90;94.80;102406.25;7398189;19;19929;-68
2023/10/04 06:14:27;;;;;;;5.13;1.70;;;;;;;11.90;94.80;102395.47;7394785;19;19922;-68
2023/10/04 06:16:57;;;;;;;4.18;1.20;;;;;;;11.91;94.99;102397.13;7395209;19;19950;-67
2023/10/04 06:19:28;;;;;;;5.28;1.80;;;;;;;11.94;94.85;102401.41;7401625;19;19918;-68
2023/10/04 06:21:56;;;;;;;5.47;1.58;;;;;;;11.95;94.79;102400.41;7400591;19;19930;-67
2023/10/04 06:24:25;;;;;;;6.85;1.38;;;;;;;11.98;95.11;102416.31;7397927;19;20397;-67
2023/10/04 06:26:54;;;;;;;7.10;1.20;;;;;;;12.00;94.79;102419.69;7392063;19;19947;-67
2023/10/04 06:29:22;;;;;;;6.38;1.50;;;;;;;12.03;94.86;102416.72;7400374;19;19919;-68
2023/10/04 06:31:53;;;;;;;6.65;1.30;;;;;;;12.04;94.73;102411.16;7394901;19;19922;-67
2023/10/04 06:34:22;;;;;;;9.10;1.60;;;;;;;12.08;95.04;102400.94;7391262;19;20479;-67
2023/10/04 06:36:51;;;;;;;7.07;2.00;;;;;;;12.10;94.95;102410.56;7397415;19;19968;-67
2023/10/04 06:39:20;;;;;;;9.85;1.90;;;;;;;12.13;94.95;102415.66;7396632;19;19926;-67
2023/10/04 06:41:49;;;;;;;6.28;1.60;;;;;;;12.18;94.89;102420.63;7398161;19;19929;-67
2023/10/04 06:44:18;;;;;;;8.00;1.83;;;;;;;12.21;95.13;102420.31;7394123;19;19922;-67
2023/10/04 06:46:47;;;;;;;5.78;1.98;;;;;;;12.23;94.67;102419.19;7393112;19;20016;-67
2023/10/04 06:49:18;;;;;;;5.72;1.70;;;;;;;12.27;94.71;102430.53;7389961;19;20278;-67
2023/10/04 06:51:47;;;;;;;7.97;1.55;;;;;;;12.31;94.46;102437.34;7394531;19;19923;-68
2023/10/04 06:54:16;;;;;;;8.48;1.60;;;;;;;12.35;94.69;102438.75;7399048;19;19941;-68
2023/10/04 06:56:46;;;;;;;9.68;1.90;;;;;;;12.40;94.61;102439.16;7399907;19;20345;-68
2023/10/04 06:59:15;;;;;;;8.10;1.67;;;;;;;12.44;94.24;102440.53;7394451;19;19996;-68
2023/10/04 07:01:44;;;;;;;8.68;1.90;;;;;;;12.49;94.44;102432.84;7397468;19;19927;-68
2023/10/04 07:04:12;;;;;;;6.18;1.42;;;;;;;12.52;94.30;102440.63;7390132;19;19926;-68
2023/10/04 07:06:43;;;;;;;6.85;2.08;;;;;;;12.57;94.11;102442.88;7395810;19;19929;-68
2023/10/04 07:09:12;;;;;;;5.90;1.60;;;;;;;12.61;94.10;102447.84;7394203;19;20579;-68
2023/10/04 07:11:41;;;;;;;6.97;2.20;;;;;;;12.67;94.03;102446.38;7394186;19;20341;-68
2023/10/04 07:14:10;;;;;;;7.55;2.50;;;;;;;12.71;93.72;102450.50;7398485;19;19982;-68
2023/10/04 07:16:38;;;;;;;9.10;1.67;;;;;;;12.74;93.63;102442.91;7394113;19;19927;-67
2023/10/04 07:19:07;;;;;;;7.18;1.50;;;;;;;12.78;93.60;102448.00;7394842;19;20308;-68
2023/10/04 07:21:36;;;;;;;11.70;1.73;;;;;;;12.82;93.68;102444.84;7397623;19;19918;-68
2023/10/04 07:24:07;;;;;;;6.93;2.10;;;;;;;12.86;93.27;102454.34;7396980;19;19922;-68
2023/10/04 07:26:36;;;;;;;6.10;1.85;;;;;;;12.90;93.02;102452.22;7396303;19;19940;-68
2023/10/04 07:29:06;;;;;;;8.73;1.58;;;;;;;12.95;93.16;102464.25;7396844;19;19914;-69
2023/10/04 07:31:36;;;;;;;8.48;1.60;;;;;;;13.00;92.73;102453.81;7395719;19;20359;-68
2023/10/04 07:34:05;;;;;;;5.75;1.58;;;;;;;13.06;92.79;102469.47;7389923;19;19937;-68
2023/10/04 07:36:34;;;;;;;10.20;2.00;;;;;;;13.11;92.52;102487.97;7389836;19;20013;-68
2023/10/04 07:39:04;;;;;;;6.43;1.95;;;;;;;13.16;92.35;102474.81;7394769;19;20012;-68
2023/10/04 07:41:36;;;;;;;7.43;2.25;;;;;;;13.23;92.01;102489.44;7396530;19;20488;-68
2023/10/04 07:44:05;;;;;;;7.35;1.95;;;;;;;13.28;91.76;102479.00;7396288;19;20276;-68
2023/10/04 07:46:34;;;;;;;7.93;2.25;;;;;;;13.33;91.75;102479.34;7391837;19;19926;-68
2023/10/04 07:49:03;;;;;;;11.15;2.38;;;;;;;13.37;91.45;102478.06;7399515;19;19915;-68
2023/10/04 07:51:32;;;;;;;5.18;1.98;;;;;;;13.43;91.21;102472.00;7392438;19;19934;-68
2023/10/04 07:54:01;;;;;;;10.48;2.03;;;;;;;13.51;91.45;102474.78;7399751;19;19946;-68
2023/10/04 07:56:30;;;;;;;7.80;2.05;;;;;;;13.58;91.18;102480.44;7398977;19;20302;-68
2023/10/04 07:59:02;;;;;;;5.25;2.20;;;;;;;13.63;91.44;102481.63;7398648;19;19925;-68
2023/10/04 08:01:31;;;;;;;7.40;1.80;;;;;;;13.70;90.66;102479.16;7401733;19;20533;-68
2023/10/04 08:04:00;;;;;;;4.80;1.55;;;;;;;13.77;90.11;102485.63;7397763;19;20031;-68
2023/10/04 08:06:29;;;;;;;13.25;2.70;;;;;;;13.81;90.20;102480.75;7395315;19;19942;-68
2023/10/04 08:08:57;;;;;;;8.27;1.90;;;;;;;13.87;89.91;102485.53;7395162;19;19922;-68
2023/10/04 08:11:27;;;;;;;8.85;2.08;;;;;;;13.94;89.79;102483.88;7395460;19;19918;-68
2023/10/04 08:13:57;;;;;;;9.38;2.20;;;;;;;14.02;89.71;102494.81;7393435;19;19930;-68
2023/10/04 08:16:30;;;;;;;9.73;2.15;;;;;;;14.10;88.96;102484.00;7385652;19;19957;-68
2023/10/04 08:18:59;;;;;;;9.93;2.95;;;;;;;14.17;88.90;102493.19;7396243;19;20304;-68
2023/10/04 08:21:28;;;;;;;5.28;1.92;;;;;;;14.22;89.01;102495.41;7391303;19;19950;-69
2023/10/04 08:23:57;;;;;;;9.20;1.88;;;;;;;14.27;88.71;102496.63;7396175;19;19923;-68
2023/10/04 08:26:26;;;;;;;5.85;1.90;;;;;;;14.33;88.05;102504.09;7394830;19;20367;-68
2023/10/04 08:28:55;;;;;;;7.97;2.45;;;;;;;14.37;88.09;102505.50;7392981;19;20452;-68
2023/10/04 08:31:23;;;;;;;6.70;2.10;;;;;;;14.43;87.79;102512.16;7396108;19;19953;-68
2023/10/04 08:33:55;;;;;;;7.55;2.22;;;;;;;14.49;87.75;102501.53;7396122;19;20040;-68
2023/10/04 08:36:23;;;;;;;8.30;1.98;;;;;;;14.58;87.43;102507.84;7396393;19;19922;-68
2023/10/04 08:38:52;;;;;;;8.35;2.38;;;;;;;14.65;87.45;102508.88;7394671;19;19915;-68
2023/10/04 08:41:21;;;;;;;10.73;2.30;;;;;;;14.71;86.47;102512.78;7392751;19;19927;-69
2023/10/04 08:43:49;;;;;;;6.45;2.28;;;;;;;14.77;86.79;102506.69;7394747;19;19927;-68
2023/10/04 08:46:20;;;;;;;10.23;2.35;;;;;;;14.77;85.76;102512.13;7396054;19;19918;-68
2023/10/04 08:48:55;;;;;;;6.63;2.03;;;;;;;14.78;85.78;102508.41;7395844;19;19936;-68
2023/10/04 08:51:36;;;;;;;9.35;2.58;;;;;;;14.76;85.53;102513.13;7391676;19;20637;-68
2023/10/04 08:54:15;;;;;;;8.30;2.55;;;;;;;14.79;85.85;102510.09;7388433;19;19939;-68
2023/10/04 08:56:51;;;;;;;6.55;2.25;;;;;;;14.85;86.20;102515.72;7383676;19;19911;-68
2023/10/04 08:59:22;;;;;;;7.25;2.53;;;;;;;14.93;85.63;102514.88;7390190;19;19919;-68
2023/10/04 09:01:51;;;;;;;10.95;2.20;;;;;;;14.99;85.61;102523.22;7390669;19;19930;-68
2023/10/04 09:04:24;;;;;;;8.48;2.22;;;;;;;15.04;84.39;102511.88;7389280;19;20624;-68
2023/10/04 09:06:54;;;;;;;8.30;2.30;;;;;;;15.11;84.14;102525.59;7387244;19;20467;-68
2023/10/04 09:09:23;;;;;;;6.75;2.10;;;;;;;15.16;83.97;102515.09;7388183;19;19926;-68
2023/10/04 09:11:52;;;;;;;9.63;2.38;;;;;;;15.20;83.47;102516.47;7392942;19;19922;-68
2023/10/04 09:14:21;;;;;;;8.00;1.90;;;;;;;15.24;83.17;102518.69;7388499;19;19982;-68
2023/10/04 09:17:06;;;;;;;11.50;2.83;;;;;;;15.27;81.73;102523.78;7390201;19;19926;-68
2023/10/04 09:19:37;;;;;;;10.18;2.50;;;;;;;15.34;82.55;102516.66;7394325;19;19947;-68
2023/10/04 09:22:08;;;;;;;8.27;2.40;;;;;;;15.40;82.25;102515.97;7391963;19;19922;-68
2023/10/04 09:24:38;;;;;;;11.50;3.30;;;;;;;15.44;81.97;102522.78;7391229;19;19923;-68
2023/10/04 09:27:07;;;;;;;11.68;3.00;;;;;;;15.49;82.21;102522.25;7388106;19;19926;-67
2023/10/04 09:29:38;;;;;;;11.48;2.80;;;;;;;15.52;82.45;102510.25;7392030;19;20393;-68
2023/10/04 09:32:09;;;;;;;8.52;2.47;;;;;;;15.61;82.56;102523.69;7392292;19;19927;-68
2023/10/04 09:34:40;;;;;;;8.25;2.30;;;;;;;15.67;80.87;102513.97;7395017;19;19922;-67
2023/10/04 09:37:21;;;;;;;8.13;2.33;;;;;;;15.70;80.60;102517.22;7394765;19;20027;-67
2023/10/04 09:39:49;;;;;;;13.75;3.30;;;;;;;15.79;80.80;102526.22;7393754;19;19926;-68
2023/10/04 09:42:19;;;;;;;7.82;2.58;;;;;;;15.84;80.27;102512.94;7391902;19;19978;-68
2023/10/04 09:44:49;;;;;;;7.47;2.90;;;;;;;15.92;79.62;102523.81;7396893;19;19923;-68
2023/10/04 09:47:18;;;;;;;7.05;1.90;;;;;;;15.96;79.16;102527.91;7396365;19;19929;-67
2023/10/04 09:49:51;;;;;;;9.70;2.80;;;;;;;16.07;77.56;102513.09;7395776;19;20294;-67
2023/10/04 09:52:22;;;;;;;7.18;2.58;;;;;;;16.16;78.84;102525.66;7398428;19;19982;-67
2023/10/04 09:54:53;;;;;;;8.50;2.63;;;;;;;16.27;78.55;102536.16;7396448;19;19922;-67
2023/10/04 09:57:27;;;;;;;8.98;3.15;;;;;;;16.34;76.78;102519.00;7399456;19;19926;-67
2023/10/04 10:00:00;;;;;;;12.82;2.63;;;;;;;16.38;77.13;102507.75;7396310;19;19918;-67
2023/10/04 10:02:33;;;;;;;;;;;;;;;16.34;74.73;102529.88;7393674;19;19931;-67
2023/10/04 10:05:09;;;;;;;11.45;2.47;;;;;;;16.40;74.30;102517.41;7393910;19;19950;-68
2023/10/04 10:07:39;;;;;;;5.32;2.28;;;;;;;16.46;75.64;102508.56;7398996;19;20440;-67
2023/10/04 10:10:12;;;;;;;10.93;2.28;;;;;;;16.54;75.32;102510.41;7382072;19;19947;-67
2023/10/04 10:12:43;;;;;;;9.95;2.95;;;;;;;16.64;73.87;102519.25;7392267;19;20628;-68
2023/10/04 10:15:13;;;;;;;8.80;2.90;;;;;;;16.64;74.02;102508.38;7398189;19;19959;-68
2023/10/04 10:17:43;;;;;;;12.23;2.53;;;;;;;16.71;72.56;102509.34;7401569;19;19914;-67
2023/10/04 10:20:16;;;;;;;8.75;2.25;;;;;;;16.81;72.14;102504.53;7390622;19;20005;-69
2023/10/04 10:23:13;;;;;;;8.38;2.20;;;;;;;16.95;71.51;102508.38;7399820;19;19919;-69
2023/10/04 10:25:42;;;;;;;9.23;2.20;;;;;;;17.04;71.06;102505.41;7400513;19;19975;-69
2023/10/04 10:28:23;;;;;;;7.97;2.15;;;;;;;17.11;68.04;102521.88;7400504;19;20341;-69
2023/10/04 10:31:02;;;;;;;9.10;2.95;;;;;;;17.25;68.38;102496.59;7398636;19;19926;-69
2023/10/04 10:33:31;;;;;;;10.43;2.40;;;;;;;17.38;70.86;102498.72;7399182;19;20096;-67
2023/10/04 10:36:05;;;;;;;9.82;2.55;;;;;;;17.49;68.73;102506.47;7399121;19;19919;-69
2023/10/04 10:38:48;;;;;;;7.75;2.70;;;;;;;17.49;65.92;102495.56;7399592;19;20272;-70
2023/10/04 10:41:48;;;;;;;8.15;2.20;;;;;;;17.46;65.96;102490.47;7396806;19;19956;-70
2023/10/04 10:44:20;;;;;;;7.57;2.53;;;;;;;17.56;66.65;102488.38;7398776;19;19950;-70
2023/10/04 10:46:58;;;;;;;11.05;2.92;;;;;;;17.46;64.51;102498.66;7400354;19;19923;-70
2023/10/04 10:49:49;;;;;;;6.65;2.15;;;;;;;17.51;64.54;102485.34;7399591;19;20365;-70
2023/10/04 10:52:34;;;;;;;9.27;2.63;;;;;;;17.44;65.65;102490.66;7399085;19;19929;-71
2023/10/04 10:55:05;;;;;;;10.85;2.75;;;;;;;17.46;68.14;102488.59;7400093;19;19926;-71
2023/10/04 10:57:36;;;;;;;9.88;2.25;;;;;;;17.43;68.06;102496.31;7399864;19;19934;-69
2023/10/04 11:00:12;;;;;;;;;;;;;;;17.19;65.97;102500.91;7395990;19;19915;-69
2023/10/04 11:02:41;;;;;;;9.90;2.80;;;;;;;17.23;69.54;102496.78;7399231;19;19926;-69
2023/10/04 11:05:12;;;;;;;8.30;2.38;;;;;;;17.22;68.44;102503.25;7396520;19;19939;-69
2023/10/04 11:07:43;;;;;;;9.05;2.65;;;;;;;17.17;69.04;102502.94;7398673;19;20600;-70
2023/10/04 11:10:16;;;;;;;8.43;2.20;;;;;;;17.15;68.25;102512.31;7398386;19;19930;-70
2023/10/04 11:12:46;;;;;;;8.25;3.45;;;;;;;17.10;69.31;102515.59;7399987;19;19923;-68
2023/10/04 11:15:17;;;;;;;8.73;2.63;;;;;;;16.99;69.10;102510.56;7395251;19;19930;-70
2023/10/04 11:17:46;;;;;;;7.40;2.83;;;;;;;16.93;68.97;102507.69;7399604;19;19927;-69
2023/10/04 11:20:17;;;;;;;7.55;2.60;;;;;;;16.85;68.20;102500.44;7396439;19;19923;-69
2023/10/04 11:22:49;;;;;;;10.63;2.75;;;;;;;16.78;68.43;102510.34;7397610;19;19918;-69
2023/10/04 11:25:19;;;;;;;10.60;2.88;;;;;;;16.75;69.24;102494.34;7399280;19;19993;-68
2023/10/04 11:27:49;;;;;;;9.02;2.45;;;;;;;16.73;70.13;102507.31;7386829;19;19922;-68
2023/10/04 11:30:22;;;;;;;11.45;2.75;;;;;;;16.70;70.12;102505.75;7393720;19;19951;-69
2023/10/04 11:32:52;;;;;;;11.38;2.78;;;;;;;16.70;70.13;102513.06;7385892;19;20268;-68
2023/10/04 11:35:21;;;;;;;8.88;2.20;;;;;;;16.67;70.04;102499.84;7389792;19;19930;-69
2023/10/04 11:37:54;;;;;;;8.88;2.17;;;;;;;16.65;69.71;102510.06;7397173;19;19946;-69
2023/10/04 11:40:29;;;;;;;8.52;2.60;;;;;;;16.59;69.54;102502.59;7396311;19;19928;-69